createdAt,value
2019-02-21T00:00:58.188Z,27.23
2019-02-21T00:03:26.475Z,27.17
2019-02-21T00:05:54.777Z,26.45
2019-02-21T00:08:23.854Z,23.62
2019-02-21T00:10:52.155Z,28.58
2019-02-21T00:13:20.447Z,26.73
2019-02-21T00:15:48.782Z,29.52
2019-02-21T00:18:17.071Z,26.62
2019-02-21T00:20:45.339Z,26.40
2019-02-21T00:23:15.107Z,27.33
2019-02-21T00:25:43.524Z,25.27
2019-02-21T00:28:11.881Z,28.38
2019-02-21T00:30:40.908Z,28.20
2019-02-21T00:33:10.060Z,25.25
2019-02-21T00:35:38.440Z,24.90
2019-02-21T00:38:06.829Z,26.48
2019-02-21T00:40:35.254Z,27.67
2019-02-21T00:43:03.491Z,26.70
2019-02-21T00:45:31.849Z,26.48
2019-02-21T00:48:00.139Z,25.65
2019-02-21T00:50:28.419Z,26.62
2019-02-21T00:52:56.817Z,27.42
2019-02-21T00:55:27.898Z,28.08
2019-02-21T00:57:54.263Z,26.12
2019-02-21T01:00:22.632Z,27.92
2019-02-21T01:02:51.277Z,24.15
2019-02-21T01:05:20.422Z,25.55
2019-02-21T01:07:48.803Z,27.75
2019-02-21T01:10:17.856Z,27.37
2019-02-21T01:12:46.186Z,24.27
2019-02-21T01:15:15.246Z,30.15
2019-02-21T01:17:43.571Z,28.87
2019-02-21T01:20:12.659Z,25.08
2019-02-21T01:22:41.001Z,31.50
2019-02-21T01:25:09.277Z,26.37
2019-02-21T01:27:37.629Z,28.23
2019-02-21T01:30:05.938Z,27.45
2019-02-21T01:32:35.027Z,28.30
2019-02-21T01:35:03.406Z,27.67
2019-02-21T01:37:31.787Z,28.48
2019-02-21T01:40:00.230Z,27.80
2019-02-21T01:42:28.430Z,26.50
2019-02-21T01:44:56.822Z,28.50
2019-02-21T01:47:25.145Z,26.90
2019-02-21T01:49:53.451Z,28.10
2019-02-21T01:52:21.865Z,32.20
2019-02-21T01:54:50.919Z,31.85
2019-02-21T01:57:19.249Z,28.80
2019-02-21T01:59:48.427Z,29.05
2019-02-21T02:02:16.746Z,28.60
2019-02-21T02:04:45.099Z,27.77
2019-02-21T02:07:13.498Z,30.08
2019-02-21T02:09:41.823Z,31.65
2019-02-21T02:12:10.179Z,32.10
2019-02-21T02:14:38.479Z,30.37
2019-02-21T02:17:06.856Z,27.27
2019-02-21T02:19:35.146Z,29.63
2019-02-21T02:22:04.326Z,31.92
2019-02-21T02:24:32.697Z,29.97
2019-02-21T02:27:01.131Z,28.77
2019-02-21T02:29:29.386Z,30.65
2019-02-21T02:31:58.583Z,31.65
2019-02-21T02:34:26.921Z,31.73
2019-02-21T02:36:55.194Z,29.60
2019-02-21T02:39:23.493Z,28.90
2019-02-21T02:41:51.839Z,30.65
2019-02-21T02:44:20.119Z,31.13
2019-02-21T02:46:48.400Z,28.58
2019-02-21T02:49:16.798Z,30.35
2019-02-21T02:51:45.038Z,33.78
2019-02-21T02:54:13.333Z,30.25
2019-02-21T02:56:41.697Z,33.40
2019-02-21T02:59:10.081Z,30.02
2019-02-21T03:01:38.357Z,28.90
2019-02-21T03:04:06.775Z,32.25
2019-02-21T03:06:35.030Z,33.90
2019-02-21T03:09:03.297Z,29.67
2019-02-21T03:11:31.557Z,29.90
2019-02-21T03:13:59.846Z,29.63
2019-02-21T03:16:28.152Z,33.30
2019-02-21T03:18:56.546Z,28.20
2019-02-21T03:21:24.831Z,29.75
2019-02-21T03:23:53.147Z,28.87
2019-02-21T03:26:21.433Z,31.08
2019-02-21T03:28:49.731Z,28.92
2019-02-21T03:31:18.859Z,25.88
2019-02-21T03:33:47.156Z,28.23
2019-02-21T03:36:15.573Z,30.00
2019-02-21T03:38:43.890Z,29.15
2019-02-21T03:41:12.170Z,28.73
2019-02-21T03:43:40.573Z,31.48
2019-02-21T03:46:08.981Z,28.73
2019-02-21T03:48:37.269Z,26.10
2019-02-21T03:51:06.316Z,27.87
2019-02-21T03:53:34.692Z,27.67
2019-02-21T03:56:03.109Z,28.45
2019-02-21T03:58:31.447Z,29.05
2019-02-21T04:00:59.934Z,27.17
2019-02-21T04:03:28.418Z,30.37
2019-02-21T04:05:56.757Z,28.30
2019-02-21T04:08:25.093Z,27.20
2019-02-21T04:10:53.410Z,29.33
2019-02-21T04:13:21.708Z,31.30
2019-02-21T04:15:50.039Z,25.55
2019-02-21T04:18:19.090Z,29.52
2019-02-21T04:20:47.370Z,29.02
2019-02-21T04:23:15.705Z,26.80
2019-02-21T04:25:44.011Z,29.45
2019-02-21T04:28:12.340Z,29.17
2019-02-21T04:30:41.510Z,27.73
2019-02-21T04:33:09.841Z,25.20
2019-02-21T04:35:38.177Z,25.23
2019-02-21T04:38:07.798Z,31.25
2019-02-21T04:40:36.112Z,29.60
2019-02-21T04:43:04.383Z,28.80
2019-02-21T04:45:32.668Z,33.67
2019-02-21T04:48:00.989Z,31.70
2019-02-21T04:50:29.265Z,31.70
2019-02-21T04:52:57.554Z,28.47
2019-02-21T04:55:27.409Z,29.97
2019-02-21T04:57:55.726Z,26.67
2019-02-21T05:00:24.889Z,26.35
2019-02-21T05:02:53.158Z,31.50
2019-02-21T05:05:21.493Z,32.05
2019-02-21T05:07:49.771Z,30.85
2019-02-21T05:10:18.097Z,28.67
2019-02-21T05:12:46.407Z,31.12
2019-02-21T05:15:15.469Z,27.98
2019-02-21T05:17:45.276Z,27.92
2019-02-21T05:20:13.570Z,29.35
2019-02-21T05:22:41.853Z,30.77
2019-02-21T05:25:11.014Z,30.37
2019-02-21T05:27:39.290Z,31.95
2019-02-21T05:30:07.618Z,30.98
2019-02-21T05:32:41.072Z,30.50
2019-02-21T05:35:08.975Z,31.52
2019-02-21T05:37:52.943Z,30.98
2019-02-21T05:40:28.635Z,32.33
2019-02-21T05:42:58.572Z,32.45
2019-02-21T05:45:28.131Z,30.73
2019-02-21T05:48:02.095Z,31.80
2019-02-21T05:50:32.939Z,32.97
2019-02-21T05:53:02.872Z,29.75
2019-02-21T05:55:32.624Z,31.48
2019-02-21T05:58:04.354Z,30.73
2019-02-21T06:00:36.949Z,31.52
2019-02-21T06:03:06.418Z,29.23
2019-02-21T06:05:37.319Z,30.40
2019-02-21T06:08:07.016Z,33.50
2019-02-21T06:10:38.083Z,28.60
2019-02-21T06:13:21.343Z,27.23
2019-02-21T06:15:54.854Z,26.12
2019-02-21T06:18:24.940Z,28.30
2019-02-21T06:20:57.789Z,30.52
2019-02-21T06:23:26.134Z,27.17
2019-02-21T06:25:58.246Z,34.45
2019-02-21T06:28:24.079Z,31.67
2019-02-21T06:30:52.391Z,28.45
2019-02-21T06:33:20.671Z,31.73
2019-02-21T06:35:48.985Z,28.23
2019-02-21T06:38:18.036Z,30.37
2019-02-21T06:40:47.038Z,29.02
2019-02-21T06:43:14.697Z,27.77
2019-02-21T06:45:42.991Z,28.83
2019-02-21T06:48:11.380Z,28.12
2019-02-21T06:50:39.669Z,30.98
2019-02-21T06:53:08.723Z,28.50
2019-02-21T06:55:37.019Z,28.20
2019-02-21T06:58:06.080Z,29.20
2019-02-21T07:00:34.471Z,30.67
2019-02-21T07:03:02.939Z,29.45
2019-02-21T07:05:31.224Z,29.20
2019-02-21T07:07:59.520Z,29.52
2019-02-21T07:10:27.802Z,27.83
2019-02-21T07:12:57.010Z,35.72
2019-02-21T07:15:26.053Z,29.73
2019-02-21T07:17:54.489Z,34.65
2019-02-21T07:20:22.755Z,29.52
2019-02-21T07:22:51.815Z,33.40
2019-02-21T07:25:23.555Z,29.57
2019-02-21T07:27:51.942Z,27.70
2019-02-21T07:30:23.062Z,30.80
2019-02-21T07:32:48.522Z,29.83
2019-02-21T07:35:17.596Z,29.65
2019-02-21T07:37:45.948Z,29.30
2019-02-21T07:40:20.062Z,28.80
2019-02-21T07:42:43.248Z,29.48
2019-02-21T07:45:13.457Z,26.90
2019-02-21T07:47:41.621Z,29.25
2019-02-21T07:50:10.008Z,30.17
2019-02-21T07:52:38.262Z,27.73
2019-02-21T07:55:06.529Z,27.42
2019-02-21T07:57:34.853Z,28.65
2019-02-21T08:00:04.648Z,26.50
2019-02-21T08:02:33.061Z,24.00
2019-02-21T08:05:02.477Z,29.52
2019-02-21T08:07:31.318Z,28.87
2019-02-21T08:09:59.615Z,31.10
2019-02-21T08:12:28.680Z,25.65
2019-02-21T08:14:57.023Z,30.02
2019-02-21T08:17:27.751Z,25.67
2019-02-21T08:19:53.617Z,32.13
2019-02-21T08:22:21.946Z,27.52
2019-02-21T08:24:50.250Z,28.05
2019-02-21T08:27:18.627Z,26.25
2019-02-21T08:29:46.931Z,31.70
2019-02-21T08:32:15.203Z,26.42
2019-02-21T08:34:43.499Z,27.33
2019-02-21T08:37:12.706Z,29.80
2019-02-21T08:39:41.234Z,30.25
2019-02-21T08:42:09.527Z,26.48
2019-02-21T08:44:37.900Z,30.62
2019-02-21T08:47:06.196Z,31.62
2019-02-21T08:49:34.535Z,29.25
2019-02-21T08:52:02.850Z,37.40
2019-02-21T08:54:31.191Z,35.70
2019-02-21T08:56:59.447Z,30.13
2019-02-21T08:59:27.778Z,33.33
2019-02-21T09:01:56.131Z,30.90
2019-02-21T09:04:27.707Z,29.90
2019-02-21T09:06:52.744Z,31.45
2019-02-21T09:09:21.093Z,30.08
2019-02-21T09:11:50.158Z,32.72
2019-02-21T09:14:18.573Z,32.50
2019-02-21T09:16:46.841Z,31.23
2019-02-21T09:19:16.000Z,35.20
2019-02-21T09:21:44.292Z,32.30
2019-02-21T09:24:13.834Z,28.45
2019-02-21T09:26:41.715Z,29.90
2019-02-21T09:29:10.041Z,28.05
2019-02-21T09:31:38.383Z,32.33
2019-02-21T09:34:06.637Z,32.53
2019-02-21T09:36:34.939Z,27.30
2019-02-21T09:39:03.240Z,31.92
2019-02-21T09:41:31.537Z,28.12
2019-02-21T09:44:00.605Z,28.40
2019-02-21T09:46:28.892Z,30.90
2019-02-21T09:48:57.967Z,27.55
2019-02-21T09:51:26.332Z,26.33
2019-02-21T09:53:54.718Z,27.52
2019-02-21T09:56:30.294Z,32.45
2019-02-21T09:58:51.379Z,23.93
2019-02-21T10:01:19.755Z,28.33
2019-02-21T10:03:48.053Z,26.27
2019-02-21T10:06:16.442Z,25.95
2019-02-21T10:08:45.510Z,25.40
2019-02-21T10:11:14.113Z,29.12
2019-02-21T10:13:42.459Z,26.67
2019-02-21T10:16:10.855Z,28.10
2019-02-21T10:18:39.249Z,27.77
2019-02-21T10:21:08.551Z,27.08
2019-02-21T10:23:37.610Z,24.45
2019-02-21T10:26:05.934Z,30.90
2019-02-21T10:28:35.079Z,32.03
2019-02-21T10:31:03.462Z,30.60
2019-02-21T10:33:32.294Z,26.40
2019-02-21T10:36:01.406Z,23.85
2019-02-21T10:38:30.114Z,26.23
2019-02-21T10:40:58.389Z,25.98
2019-02-21T10:43:26.683Z,24.48
2019-02-21T10:45:54.968Z,26.07
2019-02-21T10:48:24.803Z,23.98
2019-02-21T10:50:53.867Z,21.92
2019-02-21T10:53:22.268Z,23.75
2019-02-21T10:55:51.343Z,15.32
2019-02-21T10:58:19.765Z,19.02
2019-02-21T11:00:48.100Z,16.20
2019-02-21T11:03:16.386Z,17.48
2019-02-21T11:05:44.729Z,13.90
2019-02-21T11:08:12.999Z,14.98
2019-02-21T11:10:41.359Z,13.23
2019-02-21T11:13:09.701Z,14.60
2019-02-21T11:15:37.988Z,15.50
2019-02-21T11:18:07.178Z,16.25
2019-02-21T11:20:35.475Z,16.67
2019-02-21T11:23:06.303Z,20.12
2019-02-21T11:25:32.161Z,16.33
2019-02-21T11:28:00.453Z,15.52
2019-02-21T11:30:28.844Z,15.73
2019-02-21T11:32:57.199Z,14.13
2019-02-21T11:35:25.501Z,16.15
2019-02-21T11:37:55.044Z,17.23
2019-02-21T11:40:23.368Z,12.03
2019-02-21T11:42:51.815Z,15.32
2019-02-21T11:45:20.117Z,15.00
2019-02-21T11:47:48.806Z,16.45
2019-02-21T11:50:17.192Z,18.70
2019-02-21T11:52:45.484Z,17.10
2019-02-21T11:55:19.983Z,17.92
2019-02-21T11:57:48.290Z,17.60
2019-02-21T12:00:17.347Z,18.05
2019-02-21T12:02:45.737Z,20.80
2019-02-21T12:05:17.466Z,18.20
2019-02-21T12:07:42.328Z,26.85
2019-02-21T12:10:10.697Z,19.90
2019-02-21T12:12:40.571Z,22.40
2019-02-21T12:15:11.723Z,18.67
2019-02-21T12:17:42.442Z,22.07
2019-02-21T12:20:11.599Z,23.52
2019-02-21T12:22:39.919Z,20.48
2019-02-21T12:25:08.915Z,20.33
2019-02-21T12:27:37.206Z,27.37
2019-02-21T12:30:06.248Z,23.60
2019-02-21T12:32:34.610Z,24.10
2019-02-21T12:35:02.909Z,23.65
2019-02-21T12:37:31.218Z,23.17
2019-02-21T12:39:59.734Z,19.83
2019-02-21T12:42:27.985Z,17.50
2019-02-21T12:44:56.280Z,18.58
2019-02-21T12:47:25.427Z,20.23
2019-02-21T12:49:55.426Z,19.02
2019-02-21T12:52:22.026Z,19.33
2019-02-21T12:54:51.880Z,16.58
2019-02-21T12:57:19.463Z,20.42
2019-02-21T12:59:49.267Z,20.75
2019-02-21T13:02:17.538Z,17.67
2019-02-21T13:04:45.879Z,20.05
2019-02-21T13:07:14.192Z,21.48
2019-02-21T13:09:42.488Z,20.17
2019-02-21T13:12:10.865Z,18.50
2019-02-21T13:14:39.222Z,18.27
2019-02-21T13:17:07.567Z,20.37
2019-02-21T13:19:36.011Z,16.90
2019-02-21T13:22:05.121Z,16.65
2019-02-21T13:24:33.643Z,15.90
2019-02-21T13:27:01.928Z,13.70
2019-02-21T13:29:30.387Z,14.73
2019-02-21T13:31:58.683Z,14.02
2019-02-21T13:34:27.031Z,14.13
2019-02-21T13:36:55.398Z,13.20
2019-02-21T13:39:24.261Z,17.08
2019-02-21T13:41:52.587Z,12.18
2019-02-21T13:44:20.929Z,12.35
2019-02-21T13:46:49.192Z,11.90
2019-02-21T13:49:19.159Z,13.62
2019-02-21T13:51:47.548Z,14.15
2019-02-21T13:54:15.911Z,12.43
2019-02-21T13:56:44.923Z,17.45
2019-02-21T13:59:13.257Z,12.25
2019-02-21T14:01:41.545Z,14.82
2019-02-21T14:04:09.948Z,12.60
2019-02-21T14:06:38.335Z,13.35
2019-02-21T14:09:06.665Z,15.75
2019-02-21T14:11:34.955Z,15.13
2019-02-21T14:14:03.297Z,11.95
2019-02-21T14:16:31.619Z,13.57
2019-02-21T14:18:59.911Z,13.60
2019-02-21T14:21:28.203Z,12.82
2019-02-21T14:23:56.534Z,15.38
2019-02-21T14:26:24.853Z,12.10
2019-02-21T14:28:55.298Z,14.48
2019-02-21T14:31:24.385Z,12.85
2019-02-21T14:33:52.674Z,9.98
2019-02-21T14:36:20.927Z,9.18
2019-02-21T14:38:49.321Z,12.02
2019-02-21T14:41:17.677Z,10.05
2019-02-21T14:43:46.047Z,11.45
2019-02-21T14:46:14.383Z,10.85
2019-02-21T14:48:42.660Z,16.65
2019-02-21T14:51:10.980Z,14.35
2019-02-21T14:53:39.299Z,11.75
2019-02-21T14:56:07.613Z,14.38
2019-02-21T14:58:35.890Z,12.93
2019-02-21T15:01:04.187Z,12.05
2019-02-21T15:03:32.904Z,13.27
2019-02-21T15:06:01.282Z,14.13
2019-02-21T15:08:29.571Z,14.30
2019-02-21T15:10:57.930Z,13.40
2019-02-21T15:13:27.126Z,13.40
2019-02-21T15:15:56.191Z,13.40
2019-02-21T15:18:24.479Z,12.57
2019-02-21T15:20:52.769Z,13.85
2019-02-21T15:23:21.812Z,16.25
2019-02-21T15:25:50.202Z,20.00
2019-02-21T15:28:18.572Z,16.98
2019-02-21T15:30:46.898Z,12.45
2019-02-21T15:33:16.047Z,16.35
2019-02-21T15:35:44.463Z,12.50
2019-02-21T15:38:20.031Z,16.80
2019-02-21T15:40:43.344Z,11.00
2019-02-21T15:43:09.590Z,13.20
2019-02-21T15:45:37.848Z,11.65
2019-02-21T15:48:06.212Z,16.40
2019-02-21T15:50:34.597Z,14.20
2019-02-21T15:53:02.930Z,12.55
2019-02-21T15:55:32.310Z,9.43
2019-02-21T15:58:03.916Z,12.60
2019-02-21T16:00:28.643Z,16.35
2019-02-21T16:02:57.010Z,15.18
2019-02-21T16:05:25.320Z,15.13
2019-02-21T16:07:53.582Z,15.27
2019-02-21T16:10:23.570Z,13.50
2019-02-21T16:12:52.160Z,15.52
2019-02-21T16:15:20.140Z,14.30
2019-02-21T16:17:49.234Z,14.18
2019-02-21T16:20:18.304Z,17.33
2019-02-21T16:22:46.710Z,16.25
2019-02-21T16:25:21.714Z,13.82
2019-02-21T16:27:50.013Z,14.95
2019-02-21T16:30:18.304Z,17.30
2019-02-21T16:32:47.396Z,19.77
2019-02-21T16:35:16.493Z,20.00
2019-02-21T16:37:44.789Z,17.57
2019-02-21T16:40:15.976Z,20.33
2019-02-21T16:42:44.275Z,24.12
2019-02-21T16:45:14.270Z,23.73
2019-02-21T16:47:42.747Z,19.00
2019-02-21T16:50:12.574Z,19.23
2019-02-21T16:52:40.940Z,20.30
2019-02-21T16:55:12.051Z,22.80
2019-02-21T16:57:40.356Z,21.65
2019-02-21T17:00:09.373Z,20.08
2019-02-21T17:02:37.647Z,22.08
2019-02-21T17:05:05.971Z,23.85
2019-02-21T17:07:34.303Z,21.25
2019-02-21T17:10:04.138Z,17.10
2019-02-21T17:12:31.779Z,21.73
2019-02-21T17:15:00.052Z,17.77
2019-02-21T17:17:28.335Z,19.85
2019-02-21T17:19:57.398Z,18.37
2019-02-21T17:22:25.714Z,19.25
2019-02-21T17:24:54.859Z,20.40
2019-02-21T17:27:23.265Z,23.15
2019-02-21T17:29:51.581Z,22.13
2019-02-21T17:32:20.005Z,22.45
2019-02-21T17:34:48.282Z,19.15
2019-02-21T17:37:24.593Z,22.20
2019-02-21T17:39:44.949Z,22.55
2019-02-21T17:42:14.123Z,25.77
2019-02-21T17:44:42.501Z,26.65
2019-02-21T17:47:10.915Z,18.85
2019-02-21T17:49:40.080Z,21.27
2019-02-21T17:52:08.412Z,23.12
2019-02-21T17:54:36.764Z,21.10
2019-02-21T17:57:05.889Z,23.83
2019-02-21T17:59:34.186Z,21.45
2019-02-21T18:02:03.954Z,23.77
2019-02-21T18:04:32.268Z,21.35
2019-02-21T18:07:00.652Z,21.75
2019-02-21T18:09:29.036Z,19.85
2019-02-21T18:11:57.323Z,21.73
2019-02-21T18:14:25.684Z,20.55
2019-02-21T18:16:53.971Z,26.37
2019-02-21T18:19:22.350Z,22.87
2019-02-21T18:21:50.611Z,22.80
2019-02-21T18:24:18.996Z,25.30
2019-02-21T18:26:47.316Z,20.83
2019-02-21T18:29:16.395Z,25.85
2019-02-21T18:31:45.465Z,22.27
2019-02-21T18:34:13.751Z,25.75
2019-02-21T18:36:42.110Z,24.67
2019-02-21T18:39:10.491Z,22.30
2019-02-21T18:41:39.208Z,22.70
2019-02-21T18:44:07.480Z,20.62
2019-02-21T18:46:36.529Z,21.35
2019-02-21T18:49:04.822Z,24.37
2019-02-21T18:51:33.195Z,23.67
2019-02-21T18:54:02.038Z,24.37
2019-02-21T18:56:31.082Z,23.45
2019-02-21T18:58:59.377Z,23.48
2019-02-21T19:01:27.730Z,26.27
2019-02-21T19:03:56.211Z,27.30
2019-02-21T19:06:24.578Z,26.08
2019-02-21T19:08:52.895Z,32.58
2019-02-21T19:11:21.189Z,26.07
2019-02-21T19:13:50.347Z,27.20
2019-02-21T19:16:18.639Z,32.05
2019-02-21T19:18:47.853Z,29.25
2019-02-21T19:21:16.148Z,26.30
2019-02-21T19:23:44.819Z,30.40
2019-02-21T19:26:13.205Z,27.00
2019-02-21T19:28:41.552Z,26.33
2019-02-21T19:31:10.663Z,25.00
2019-02-21T19:33:38.984Z,27.67
2019-02-21T19:36:07.267Z,23.23
2019-02-21T19:38:35.696Z,27.33
2019-02-21T19:41:04.747Z,24.95
2019-02-21T19:43:33.149Z,21.67
2019-02-21T19:46:02.834Z,26.87
2019-02-21T19:48:31.104Z,25.42
2019-02-21T19:50:59.497Z,36.40
2019-02-21T19:53:27.844Z,26.12
2019-02-21T19:55:56.179Z,23.87
2019-02-21T19:58:25.265Z,22.45
2019-02-21T20:00:54.332Z,26.90
2019-02-21T20:03:22.715Z,26.20
2019-02-21T20:05:51.087Z,26.98
2019-02-21T20:08:21.695Z,25.80
2019-02-21T20:10:47.723Z,20.92
2019-02-21T20:13:16.142Z,20.75
2019-02-21T20:15:44.494Z,20.85
2019-02-21T20:18:12.816Z,23.80
2019-02-21T20:20:41.164Z,21.73
2019-02-21T20:23:09.520Z,23.83
2019-02-21T20:25:37.795Z,22.70
2019-02-21T20:28:06.122Z,26.67
2019-02-21T20:30:34.440Z,19.87
2019-02-21T20:33:02.872Z,21.75
2019-02-21T20:35:31.931Z,21.67
2019-02-21T20:38:00.298Z,26.83
2019-02-21T20:40:29.151Z,24.23
2019-02-21T20:42:58.413Z,23.45
2019-02-21T20:45:26.727Z,21.55
2019-02-21T20:47:55.059Z,26.23
2019-02-21T20:50:23.429Z,23.73
2019-02-21T20:52:51.739Z,26.33
2019-02-21T20:55:20.064Z,23.23
2019-02-21T20:57:48.319Z,25.15
2019-02-21T21:00:16.610Z,28.58
2019-02-21T21:02:44.992Z,29.87
2019-02-21T21:05:13.405Z,30.50
2019-02-21T21:07:41.768Z,27.05
2019-02-21T21:10:10.051Z,29.17
2019-02-21T21:12:38.450Z,28.35
2019-02-21T21:15:09.437Z,25.75
2019-02-21T21:17:35.779Z,25.67
2019-02-21T21:20:04.076Z,28.02
2019-02-21T21:22:33.127Z,28.12
2019-02-21T21:25:01.517Z,27.23
2019-02-21T21:27:29.806Z,30.55
2019-02-21T21:29:58.124Z,25.37
2019-02-21T21:32:27.164Z,25.17
2019-02-21T21:34:55.540Z,27.27
2019-02-21T21:37:23.911Z,30.15
2019-02-21T21:39:52.294Z,28.80
2019-02-21T21:42:20.705Z,22.25
2019-02-21T21:44:49.058Z,22.33
2019-02-21T21:47:17.464Z,28.58
2019-02-21T21:49:45.803Z,26.12
2019-02-21T21:52:14.183Z,25.55
2019-02-21T21:54:42.483Z,23.98
2019-02-21T21:57:10.783Z,22.15
2019-02-21T21:59:39.929Z,23.20
2019-02-21T22:02:08.219Z,23.80
2019-02-21T22:04:36.588Z,24.87
2019-02-21T22:07:04.979Z,24.87
2019-02-21T22:09:33.275Z,23.40
2019-02-21T22:12:01.656Z,23.62
2019-02-21T22:14:30.707Z,23.95
2019-02-21T22:16:59.099Z,25.75
2019-02-21T22:19:27.467Z,23.42
2019-02-21T22:21:55.742Z,23.80
2019-02-21T22:24:24.032Z,24.27
2019-02-21T22:26:53.965Z,22.00
2019-02-21T22:29:22.266Z,23.25
2019-02-21T22:31:51.314Z,25.48
2019-02-21T22:34:19.671Z,19.75
2019-02-21T22:36:48.051Z,21.33
2019-02-21T22:39:16.854Z,23.35
2019-02-21T22:41:44.815Z,22.90
2019-02-21T22:44:13.130Z,21.37
2019-02-21T22:46:42.295Z,26.77
2019-02-21T22:49:10.617Z,24.60
2019-02-21T22:51:38.887Z,24.60
2019-02-21T22:54:07.190Z,21.70
2019-02-21T22:56:35.487Z,24.40
2019-02-21T22:59:03.809Z,26.48
2019-02-21T23:01:32.862Z,22.75
2019-02-21T23:04:04.011Z,23.50
2019-02-21T23:06:42.997Z,22.62
2019-02-21T23:09:13.291Z,21.48
2019-02-21T23:11:40.443Z,24.10
2019-02-21T23:14:08.787Z,21.63
2019-02-21T23:16:37.079Z,25.00
2019-02-21T23:19:06.147Z,26.25
2019-02-21T23:21:34.521Z,23.15
2019-02-21T23:24:02.856Z,29.30
2019-02-21T23:26:31.155Z,23.05
2019-02-21T23:28:59.412Z,23.57
2019-02-21T23:31:27.727Z,27.83
2019-02-21T23:33:58.699Z,24.27
2019-02-21T23:36:27.756Z,28.02
2019-02-21T23:38:56.011Z,26.80
2019-02-21T23:41:24.303Z,24.65
2019-02-21T23:43:52.637Z,27.73
2019-02-21T23:46:21.813Z,25.17
2019-02-21T23:48:50.158Z,26.90
2019-02-21T23:51:18.541Z,28.77
2019-02-21T23:53:46.925Z,25.05
2019-02-21T23:56:16.712Z,25.37
2019-02-21T23:58:45.017Z,27.62
